createdAt,value
2024-04-11T00:04:49.341Z,76.77
2024-04-11T00:13:12.029Z,77.00
2024-04-11T00:21:35.623Z,77.13
2024-04-11T00:29:58.815Z,77.06
2024-04-11T00:38:22.628Z,76.64
2024-04-11T00:46:53.394Z,76.39
2024-04-11T00:55:17.265Z,76.25
2024-04-11T01:03:40.281Z,75.36
2024-04-11T01:12:04.132Z,74.46
2024-04-11T01:20:27.530Z,73.92
2024-04-11T01:28:51.284Z,73.48
2024-04-11T01:37:13.855Z,72.52
2024-04-11T01:45:37.189Z,72.54
2024-04-11T01:54:00.284Z,72.59
2024-04-11T02:02:23.297Z,72.63
2024-04-11T02:10:46.586Z,71.13
2024-04-11T02:19:09.460Z,70.25
2024-04-11T02:27:32.026Z,70.40
2024-04-11T02:35:54.631Z,70.83
2024-04-11T02:44:19.784Z,71.94
2024-04-11T02:52:43.726Z,72.16
2024-04-11T03:01:08.738Z,72.32
2024-04-11T03:09:32.009Z,71.95
2024-04-11T03:17:54.938Z,72.00
2024-04-11T03:26:17.591Z,72.92
2024-04-11T03:34:40.698Z,73.77
2024-04-11T03:43:04.192Z,75.35
2024-04-11T03:51:33.270Z,75.79
2024-04-11T03:59:56.057Z,76.85
2024-04-11T04:08:19.076Z,76.69
2024-04-11T04:16:42.661Z,77.45
2024-04-11T04:25:09.153Z,77.72
2024-04-11T04:33:32.625Z,77.54
2024-04-11T04:41:55.511Z,77.04
2024-04-11T04:50:18.837Z,76.82
2024-04-11T04:58:41.937Z,76.36
2024-04-11T05:07:05.742Z,75.63
2024-04-11T05:15:29.140Z,75.01
2024-04-11T05:23:52.870Z,73.26
2024-04-11T05:32:17.557Z,72.64
2024-04-11T05:40:40.221Z,71.68
2024-04-11T05:49:05.608Z,71.02
2024-04-11T05:57:28.395Z,70.40
2024-04-11T06:05:52.458Z,69.65
2024-04-11T06:14:15.408Z,69.47
2024-04-11T06:22:38.279Z,68.63
2024-04-11T06:31:02.205Z,66.76
2024-04-11T06:39:25.488Z,63.92
2024-04-11T06:47:50.779Z,60.05
2024-04-11T06:56:18.739Z,59.37
2024-04-11T07:04:45.005Z,57.22
2024-04-11T07:13:09.116Z,56.72
2024-04-11T07:21:35.883Z,53.62
2024-04-11T07:29:58.650Z,51.00
2024-04-11T07:38:27.415Z,50.05
2024-04-11T07:46:59.952Z,48.67
2024-04-11T07:55:29.973Z,48.18
2024-04-11T08:03:52.803Z,46.18
2024-04-11T08:12:18.303Z,44.07
2024-04-11T08:20:41.551Z,44.96
2024-04-11T08:29:05.003Z,41.88
2024-04-11T08:37:30.852Z,40.64
2024-04-11T08:45:54.023Z,39.90
2024-04-11T08:54:18.497Z,41.14
2024-04-11T09:02:45.140Z,41.02
2024-04-11T09:11:09.401Z,39.35
2024-04-11T09:19:40.420Z,39.63
2024-04-11T09:28:03.372Z,40.49
2024-04-11T09:36:29.198Z,40.11
2024-04-11T09:44:54.257Z,40.35
2024-04-11T09:53:27.622Z,40.24
2024-04-11T10:01:50.890Z,40.35
2024-04-11T10:10:21.052Z,40.55
2024-04-11T10:18:48.621Z,40.21
2024-04-11T10:27:19.123Z,39.98
2024-04-11T10:35:47.731Z,40.41
2024-04-11T10:44:12.425Z,40.68
2024-04-11T10:52:35.024Z,39.36
2024-04-11T11:01:04.290Z,38.51
2024-04-11T11:09:31.721Z,37.47
2024-04-11T11:17:55.958Z,30.84
2024-04-11T11:26:23.497Z,22.97
2024-04-11T11:34:47.847Z,19.04
2024-04-11T11:43:17.355Z,17.08
2024-04-11T11:51:40.684Z,15.49
2024-04-11T12:00:19.936Z,12.92
2024-04-11T12:08:44.731Z,12.21
2024-04-11T12:17:07.638Z,12.43
2024-04-11T12:25:31.041Z,12.58
2024-04-11T12:33:57.804Z,13.03
2024-04-11T12:42:24.194Z,13.76
2024-04-11T12:50:56.855Z,13.56
2024-04-11T12:59:29.232Z,13.64
2024-04-11T13:07:51.904Z,13.69
2024-04-11T13:16:14.780Z,14.19
2024-04-11T13:24:47.264Z,13.47
2024-04-11T13:33:16.011Z,13.77
2024-04-11T13:41:50.309Z,14.01
2024-04-11T13:50:35.954Z,14.20
2024-04-11T13:59:08.350Z,13.63
2024-04-11T14:07:31.860Z,14.96
2024-04-11T14:15:54.517Z,16.21
2024-04-11T14:24:19.714Z,16.68
2024-04-11T14:32:52.871Z,16.53
2024-04-11T14:41:18.618Z,16.60
2024-04-11T14:49:46.018Z,18.02
2024-04-11T14:58:08.934Z,18.20
2024-04-11T15:06:37.785Z,18.84
2024-04-11T15:15:01.360Z,19.57
2024-04-11T15:23:29.243Z,20.77
2024-04-11T15:32:06.269Z,21.46
2024-04-11T15:40:29.552Z,22.27
2024-04-11T15:48:57.948Z,22.56
2024-04-11T15:57:21.306Z,23.31
2024-04-11T16:05:50.884Z,23.84
2024-04-11T16:14:18.077Z,24.68
2024-04-11T16:22:40.698Z,27.58
2024-04-11T16:31:12.458Z,29.97
2024-04-11T16:39:36.523Z,31.85
2024-04-11T16:48:00.117Z,34.06
2024-04-11T16:56:29.331Z,34.97
2024-04-11T17:04:56.518Z,35.58
2024-04-11T17:13:22.630Z,36.66
2024-04-11T17:21:55.345Z,37.23
2024-04-11T17:30:48.055Z,38.78
2024-04-11T17:39:12.757Z,39.51
2024-04-11T17:47:41.635Z,40.95
2024-04-11T17:56:11.902Z,42.46
2024-04-11T18:04:38.056Z,43.80
2024-04-11T18:13:01.009Z,44.53
2024-04-11T18:21:26.459Z,45.57
2024-04-11T18:29:58.936Z,47.27
2024-04-11T18:38:28.658Z,47.83
2024-04-11T18:47:17.797Z,49.12
2024-04-11T18:55:50.531Z,52.97
2024-04-11T19:04:34.680Z,53.89
2024-04-11T19:12:57.997Z,55.16
2024-04-11T19:21:23.867Z,57.62
2024-04-11T19:29:51.887Z,58.86
2024-04-11T19:38:16.599Z,59.60
2024-04-11T19:46:40.458Z,58.31
2024-04-11T19:55:21.023Z,60.34
2024-04-11T20:03:44.222Z,60.99
2024-04-11T20:12:16.198Z,60.75
2024-04-11T20:20:43.163Z,60.63
2024-04-11T20:29:16.637Z,61.12
2024-04-11T20:37:44.902Z,62.50
2024-04-11T20:46:14.256Z,63.13
2024-04-11T20:54:55.939Z,63.61
2024-04-11T21:03:37.953Z,63.60
2024-04-11T21:12:19.814Z,63.04
2024-04-11T21:21:01.110Z,63.96
2024-04-11T21:29:44.251Z,64.35
2024-04-11T21:38:09.722Z,65.51
2024-04-11T21:46:36.258Z,66.05
2024-04-11T21:55:12.140Z,66.17
2024-04-11T22:03:35.477Z,66.68
2024-04-11T22:12:01.581Z,67.97
2024-04-11T22:20:25.704Z,68.20
2024-04-11T22:28:48.539Z,68.73
2024-04-11T22:37:23.777Z,69.09
2024-04-11T22:45:47.138Z,69.65
2024-04-11T22:54:23.726Z,70.45
2024-04-11T23:02:53.064Z,69.88
2024-04-11T23:11:16.816Z,69.86
2024-04-11T23:19:59.347Z,69.75
2024-04-11T23:28:29.748Z,70.05
2024-04-11T23:37:07.749Z,70.92
2024-04-11T23:45:33.271Z,70.91
2024-04-11T23:53:58.131Z,71.11
